createdAt,value
2019-01-12T00:01:48.129Z,10.80
2019-01-12T00:04:14.594Z,10.23
2019-01-12T00:06:41.015Z,10.40
2019-01-12T00:09:07.782Z,9.93
2019-01-12T00:11:34.163Z,10.03
2019-01-12T00:14:00.376Z,9.77
2019-01-12T00:16:26.808Z,9.53
2019-01-12T00:18:53.205Z,9.60
2019-01-12T00:21:20.733Z,9.80
2019-01-12T00:23:48.004Z,8.73
2019-01-12T00:26:14.785Z,8.77
2019-01-12T00:28:41.177Z,9.50
2019-01-12T00:31:11.125Z,9.03
2019-01-12T00:33:37.604Z,8.90
2019-01-12T00:36:04.134Z,8.67
2019-01-12T00:38:30.604Z,8.70
2019-01-12T00:40:56.966Z,8.23
2019-01-12T00:43:23.603Z,9.10
2019-01-12T00:45:50.101Z,8.60
2019-01-12T00:48:16.652Z,8.47
2019-01-12T00:50:43.065Z,9.33
2019-01-12T00:53:09.692Z,8.93
2019-01-12T00:55:36.035Z,9.03
2019-01-12T00:58:02.684Z,9.13
2019-01-12T01:00:29.289Z,8.73
2019-01-12T01:02:55.816Z,8.67
2019-01-12T01:05:22.166Z,8.80
2019-01-12T01:07:48.592Z,8.60
2019-01-12T01:10:16.255Z,8.93
2019-01-12T01:12:42.790Z,8.80
2019-01-12T01:15:09.578Z,9.20
2019-01-12T01:17:35.992Z,9.47
2019-01-12T01:20:02.595Z,8.37
2019-01-12T01:22:29.065Z,8.77
2019-01-12T01:24:55.521Z,8.93
2019-01-12T01:27:21.907Z,9.03
2019-01-12T01:29:48.370Z,8.97
2019-01-12T01:32:14.994Z,9.80
2019-01-12T01:34:41.468Z,9.03
2019-01-12T01:37:08.133Z,9.33
2019-01-12T01:39:34.631Z,9.43
2019-01-12T01:42:01.027Z,9.80
2019-01-12T01:44:27.426Z,10.00
2019-01-12T01:46:53.898Z,8.90
2019-01-12T01:49:20.474Z,9.83
2019-01-12T01:51:46.936Z,9.53
2019-01-12T01:54:13.237Z,9.67
2019-01-12T01:56:39.804Z,9.87
2019-01-12T01:59:06.164Z,10.30
2019-01-12T02:01:32.637Z,9.63
2019-01-12T02:03:59.069Z,9.60
2019-01-12T02:06:25.482Z,9.93
2019-01-12T02:08:52.455Z,10.57
2019-01-12T02:11:19.010Z,10.43
2019-01-12T02:13:45.306Z,10.03
2019-01-12T02:16:11.825Z,9.87
2019-01-12T02:18:38.458Z,10.37
2019-01-12T02:21:05.386Z,10.17
2019-01-12T02:23:32.240Z,10.13
2019-01-12T02:25:58.438Z,10.47
2019-01-12T02:28:24.813Z,9.77
2019-01-12T02:30:51.225Z,10.73
2019-01-12T02:33:17.745Z,11.60
2019-01-12T02:35:44.116Z,17.70
2019-01-12T02:38:10.367Z,28.60
2019-01-12T02:40:36.645Z,30.90
2019-01-12T02:43:03.204Z,36.20
2019-01-12T02:45:29.455Z,16.27
2019-01-12T02:47:56.139Z,15.37
2019-01-12T02:50:22.516Z,16.73
2019-01-12T02:52:48.890Z,17.13
2019-01-12T02:55:15.166Z,19.87
2019-01-12T02:57:41.488Z,16.30
2019-01-12T03:00:12.320Z,18.37
2019-01-12T03:02:38.757Z,17.67
2019-01-12T03:05:05.461Z,17.33
2019-01-12T03:07:31.792Z,13.63
2019-01-12T03:09:58.157Z,13.17
2019-01-12T03:12:24.829Z,12.33
2019-01-12T03:14:51.117Z,12.30
2019-01-12T03:17:17.500Z,12.33
2019-01-12T03:19:43.737Z,12.40
2019-01-12T03:22:10.097Z,10.57
2019-01-12T03:24:36.684Z,10.77
2019-01-12T03:27:03.037Z,10.83
2019-01-12T03:29:29.322Z,11.13
2019-01-12T03:31:56.187Z,10.77
2019-01-12T03:34:22.602Z,10.40
2019-01-12T03:36:49.001Z,10.50
2019-01-12T03:39:15.359Z,10.00
2019-01-12T03:41:41.752Z,10.17
2019-01-12T03:44:08.278Z,9.50
2019-01-12T03:46:34.749Z,9.03
2019-01-12T03:49:01.126Z,9.87
2019-01-12T03:51:27.473Z,8.83
2019-01-12T03:53:53.814Z,9.97
2019-01-12T03:56:21.126Z,9.73
2019-01-12T03:58:47.630Z,9.60
2019-01-12T04:01:14.187Z,9.23
2019-01-12T04:03:40.686Z,9.43
2019-01-12T04:06:07.401Z,9.90
2019-01-12T04:08:34.277Z,9.77
2019-01-12T04:11:00.737Z,9.60
2019-01-12T04:13:27.246Z,9.83
2019-01-12T04:15:53.732Z,10.03
2019-01-12T04:18:20.227Z,9.67
2019-01-12T04:20:46.676Z,9.47
2019-01-12T04:23:13.082Z,9.27
2019-01-12T04:25:39.572Z,9.00
2019-01-12T04:28:09.246Z,8.63
2019-01-12T04:30:35.578Z,8.77
2019-01-12T04:33:02.057Z,8.33
2019-01-12T04:35:28.661Z,8.30
2019-01-12T04:37:55.226Z,7.93
2019-01-12T04:40:21.455Z,7.40
2019-01-12T04:42:47.815Z,7.67
2019-01-12T04:45:14.540Z,7.27
2019-01-12T04:47:40.904Z,7.80
2019-01-12T04:50:08.202Z,7.57
2019-01-12T04:52:34.899Z,7.03
2019-01-12T04:55:01.260Z,6.27
2019-01-12T04:57:27.602Z,6.60
2019-01-12T04:59:59.389Z,6.43
2019-01-12T05:02:25.851Z,5.93
2019-01-12T05:04:52.199Z,6.50
2019-01-12T05:07:18.523Z,6.73
2019-01-12T05:09:44.953Z,7.07
2019-01-12T05:12:11.317Z,6.40
2019-01-12T05:14:37.516Z,7.37
2019-01-12T05:17:03.876Z,7.10
2019-01-12T05:19:30.269Z,7.40
2019-01-12T05:21:56.614Z,7.47
2019-01-12T05:24:22.909Z,7.10
2019-01-12T05:26:49.204Z,7.10
2019-01-12T05:29:16.832Z,6.83
2019-01-12T05:31:43.207Z,7.50
2019-01-12T05:34:09.757Z,7.20
2019-01-12T05:36:37.225Z,6.83
2019-01-12T05:39:05.942Z,6.77
2019-01-12T05:41:32.418Z,7.60
2019-01-12T05:44:01.919Z,7.33
2019-01-12T05:46:28.498Z,7.30
2019-01-12T05:48:55.454Z,7.40
2019-01-12T05:51:22.021Z,6.67
2019-01-12T05:53:48.403Z,6.37
2019-01-12T05:56:14.935Z,6.83
2019-01-12T05:58:43.867Z,6.80
2019-01-12T06:01:10.478Z,6.97
2019-01-12T06:03:36.957Z,7.80
2019-01-12T06:06:03.335Z,7.67
2019-01-12T06:08:29.644Z,7.63
2019-01-12T06:10:56.571Z,8.57
2019-01-12T06:13:22.969Z,8.23
2019-01-12T06:15:49.486Z,8.77
2019-01-12T06:18:16.142Z,8.27
2019-01-12T06:20:42.675Z,8.07
2019-01-12T06:23:09.048Z,8.17
2019-01-12T06:25:35.612Z,8.47
2019-01-12T06:28:02.253Z,7.57
2019-01-12T06:30:28.756Z,8.07
2019-01-12T06:32:55.571Z,8.30
2019-01-12T06:35:22.264Z,7.90
2019-01-12T06:37:48.953Z,7.93
2019-01-12T06:40:16.461Z,7.30
2019-01-12T06:42:42.876Z,7.47
2019-01-12T06:45:12.326Z,7.60
2019-01-12T06:47:38.924Z,7.50
2019-01-12T06:50:06.245Z,7.37
2019-01-12T06:52:32.741Z,7.20
2019-01-12T06:54:59.057Z,7.00
2019-01-12T06:57:25.537Z,7.00
2019-01-12T06:59:53.858Z,7.10
2019-01-12T07:02:20.232Z,7.20
2019-01-12T07:04:46.662Z,7.23
2019-01-12T07:07:13.380Z,6.77
2019-01-12T07:09:39.794Z,6.20
2019-01-12T07:12:06.448Z,6.40
2019-01-12T07:14:32.979Z,5.97
2019-01-12T07:16:59.490Z,5.83
2019-01-12T07:19:27.080Z,5.63
2019-01-12T07:25:29.574Z,5.97
2019-01-12T07:28:16.839Z,5.50
2019-01-12T08:25:44.215Z,6.73
2019-01-12T08:39:25.238Z,7.00
2019-01-12T08:42:37.800Z,8.73
2019-01-12T08:45:05.105Z,7.37
2019-01-12T08:47:31.851Z,7.37
2019-01-12T08:49:58.712Z,6.80
2019-01-12T08:52:34.221Z,7.07
2019-01-12T08:55:00.745Z,6.37
2019-01-12T08:57:27.310Z,6.10
2019-01-12T08:59:54.017Z,6.57
2019-01-12T09:02:29.621Z,6.17
2019-01-12T09:05:10.591Z,5.93
2019-01-12T09:07:37.354Z,5.97
2019-01-12T09:10:04.743Z,5.70
2019-01-12T09:12:31.591Z,5.37
2019-01-12T09:14:58.219Z,5.10
2019-01-12T09:17:24.820Z,4.83
2019-01-12T09:19:51.453Z,4.37
2019-01-12T09:22:18.194Z,4.17
2019-01-12T09:25:18.729Z,4.70
2019-01-12T09:27:46.252Z,4.10
2019-01-12T09:30:23.180Z,3.70
2019-01-12T09:32:59.002Z,3.73
2019-01-12T09:35:41.394Z,4.23
2019-01-12T09:38:08.002Z,4.23
2019-01-12T09:41:22.110Z,4.23
2019-01-12T09:43:53.125Z,4.00
2019-01-12T09:46:32.322Z,4.83
2019-01-12T09:49:01.250Z,4.67
2019-01-12T09:52:07.018Z,4.70
2019-01-12T09:54:36.795Z,4.83
2019-01-12T09:57:18.822Z,5.23
2019-01-12T09:59:54.476Z,4.67
2019-01-12T10:02:21.257Z,4.87
2019-01-12T10:05:30.948Z,4.90
2019-01-12T10:08:04.855Z,5.23
2019-01-12T10:11:10.710Z,4.80
2019-01-12T10:14:17.608Z,5.07
2019-01-12T10:16:45.908Z,4.93
2019-01-12T10:19:45.973Z,5.83
2019-01-12T10:22:12.860Z,4.90
2019-01-12T10:24:45.998Z,4.33
2019-01-12T10:27:12.679Z,4.83
2019-01-12T10:29:41.767Z,4.20
2019-01-12T10:34:59.491Z,4.13
2019-01-12T10:37:26.427Z,4.10
2019-01-12T10:39:53.257Z,3.73
2019-01-12T10:42:21.759Z,4.00
2019-01-12T10:44:48.456Z,3.87
2019-01-12T10:47:17.755Z,3.60
2019-01-12T10:49:44.473Z,4.10
2019-01-12T10:52:11.667Z,4.40
2019-01-12T10:54:40.775Z,4.47
2019-01-12T10:57:19.132Z,3.87
2019-01-12T10:59:45.747Z,3.37
2019-01-12T11:02:39.403Z,3.70
2019-01-12T11:05:17.668Z,4.27
2019-01-12T11:07:49.055Z,4.47
2019-01-12T11:10:15.915Z,4.90
2019-01-12T11:13:05.898Z,5.47
2019-01-12T11:15:34.432Z,5.47
2019-01-12T11:18:03.333Z,5.37
2019-01-12T11:20:29.948Z,5.10
2019-01-12T11:23:09.115Z,5.53
2019-01-12T11:25:42.825Z,5.17
2019-01-12T11:28:19.535Z,4.87
2019-01-12T11:30:53.902Z,5.67
2019-01-12T11:33:25.244Z,4.90
2019-01-12T11:35:54.826Z,5.73
2019-01-12T11:38:43.817Z,6.43
2019-01-12T11:41:20.494Z,6.60
2019-01-12T11:43:50.072Z,5.83
2019-01-12T11:46:27.435Z,5.60
2019-01-12T11:48:53.979Z,6.07
2019-01-12T11:51:23.769Z,6.53
2019-01-12T11:53:50.479Z,7.87
2019-01-12T11:56:20.729Z,7.03
2019-01-12T11:58:47.142Z,7.10
2019-01-12T12:01:13.825Z,8.60
2019-01-12T12:03:48.209Z,5.57
2019-01-12T12:06:14.941Z,7.10
2019-01-12T12:08:50.563Z,4.93
2019-01-12T12:14:19.576Z,4.90
2019-01-12T12:16:46.155Z,4.80
2019-01-12T12:19:13.954Z,5.50
2019-01-12T12:21:40.599Z,8.07
2019-01-12T12:24:10.761Z,6.53
2019-01-12T12:26:38.250Z,6.40
2019-01-12T12:29:04.863Z,7.50
2019-01-12T12:31:32.009Z,6.53
2019-01-12T12:33:58.567Z,7.20
2019-01-12T12:36:24.949Z,6.73
2019-01-12T12:38:51.738Z,5.80
2019-01-12T12:41:22.368Z,6.33
2019-01-12T12:43:48.922Z,6.50
2019-01-12T12:46:15.732Z,6.60
2019-01-12T12:48:42.160Z,7.47
2019-01-12T12:51:08.746Z,7.67
2019-01-12T12:53:38.393Z,6.23
2019-01-12T12:56:04.832Z,7.50
2019-01-12T12:58:31.417Z,6.53
2019-01-12T13:00:57.741Z,7.20
2019-01-12T13:03:24.186Z,9.43
2019-01-12T13:05:50.648Z,8.33
2019-01-12T13:08:17.213Z,8.97
2019-01-12T13:10:46.028Z,8.67
2019-01-12T13:13:14.906Z,10.07
2019-01-12T13:15:42.509Z,9.33
2019-01-12T13:18:09.131Z,7.80
2019-01-12T13:20:35.579Z,10.07
2019-01-12T13:23:02.064Z,9.07
2019-01-12T13:25:29.578Z,8.03
2019-01-12T13:27:56.153Z,8.80
2019-01-12T13:30:23.473Z,8.43
2019-01-12T13:32:49.926Z,8.23
2019-01-12T13:35:16.460Z,8.13
2019-01-12T13:37:42.958Z,8.27
2019-01-12T13:40:10.030Z,8.77
2019-01-12T13:42:36.994Z,8.80
2019-01-12T13:45:04.826Z,8.67
2019-01-12T13:47:31.596Z,8.50
2019-01-12T13:50:01.050Z,15.37
2019-01-12T13:52:27.718Z,9.17
2019-01-12T13:54:56.545Z,8.73
2019-01-12T13:57:23.221Z,8.50
2019-01-12T13:59:49.745Z,9.33
2019-01-12T14:02:16.737Z,7.83
2019-01-12T14:04:45.592Z,8.47
2019-01-12T14:07:15.291Z,9.30
2019-01-12T14:09:41.957Z,9.60
2019-01-12T14:12:18.806Z,9.73
2019-01-12T14:14:45.610Z,9.87
2019-01-12T14:17:16.131Z,10.17
2019-01-12T14:19:43.673Z,10.50
2019-01-12T14:22:14.921Z,9.97
2019-01-12T14:24:41.786Z,11.47
2019-01-12T14:27:08.717Z,10.30
2019-01-12T14:29:37.519Z,9.20
2019-01-12T14:32:04.514Z,11.27
2019-01-12T14:34:31.310Z,8.73
2019-01-12T14:36:58.043Z,9.70
2019-01-12T14:39:27.155Z,11.43
2019-01-12T14:41:53.964Z,11.20
2019-01-12T14:44:20.387Z,8.87
2019-01-12T14:46:47.051Z,9.10
2019-01-12T14:49:16.919Z,9.43
2019-01-12T14:51:43.684Z,10.30
2019-01-12T14:54:10.445Z,9.93
2019-01-12T14:56:37.080Z,9.23
2019-01-12T14:59:03.913Z,10.17
2019-01-12T15:01:34.044Z,8.73
2019-01-12T15:04:01.643Z,8.33
2019-01-12T15:06:52.391Z,7.77
2019-01-12T15:09:18.980Z,8.17
2019-01-12T15:11:53.152Z,7.80
2019-01-12T15:14:19.701Z,7.67
2019-01-12T15:16:46.365Z,8.13
2019-01-12T15:19:13.047Z,7.87
2019-01-12T15:21:39.622Z,9.60
2019-01-12T15:24:06.219Z,8.60
2019-01-12T15:26:32.776Z,8.70
2019-01-12T15:28:59.473Z,9.20
2019-01-12T15:31:25.969Z,8.50
2019-01-12T15:33:52.561Z,9.63
2019-01-12T15:36:19.616Z,9.23
2019-01-12T15:38:46.344Z,9.17
2019-01-12T15:41:15.776Z,10.13
2019-01-12T15:43:42.237Z,10.50
2019-01-12T15:46:09.279Z,10.73
2019-01-12T15:48:40.845Z,9.50
2019-01-12T15:51:07.903Z,10.13
2019-01-12T15:53:40.449Z,8.77
2019-01-12T15:56:07.278Z,8.93
2019-01-12T15:58:36.689Z,8.47
2019-01-12T16:01:05.570Z,8.80
2019-01-12T16:03:32.321Z,8.77
2019-01-12T16:05:59.075Z,8.43
2019-01-12T16:08:25.731Z,7.60
2019-01-12T16:10:54.617Z,7.93
2019-01-12T16:13:21.701Z,8.80
2019-01-12T16:15:48.257Z,7.43
2019-01-12T16:18:17.868Z,7.77
2019-01-12T16:20:48.811Z,8.27
2019-01-12T16:23:19.609Z,7.30
2019-01-12T16:25:49.571Z,6.40
2019-01-12T16:28:23.225Z,6.93
2019-01-12T16:30:45.951Z,6.20
2019-01-12T16:33:12.807Z,5.30
2019-01-12T16:35:39.299Z,5.17
2019-01-12T16:38:06.375Z,5.30
2019-01-12T16:40:38.513Z,5.30
2019-01-12T16:43:06.093Z,5.00
2019-01-12T16:45:35.280Z,4.90
2019-01-12T16:48:01.761Z,5.37
2019-01-12T16:50:38.194Z,5.07
2019-01-12T16:53:08.496Z,5.30
2019-01-12T16:55:36.469Z,4.83
2019-01-12T16:58:04.013Z,4.60
2019-01-12T17:00:32.329Z,4.60
2019-01-12T17:03:03.214Z,4.23
2019-01-12T17:05:38.190Z,4.70
2019-01-12T17:08:06.328Z,4.60
2019-01-12T17:10:34.046Z,5.40
2019-01-12T17:13:01.119Z,5.03
2019-01-12T17:15:37.799Z,5.20
2019-01-12T17:18:05.351Z,5.67
2019-01-12T17:20:31.965Z,5.97
2019-01-12T17:23:08.386Z,5.77
2019-01-12T17:25:37.021Z,6.37
2019-01-12T17:28:04.009Z,6.77
2019-01-12T17:30:33.606Z,5.63
2019-01-12T17:33:00.192Z,5.90
2019-01-12T17:35:26.811Z,6.33
2019-01-12T17:37:56.460Z,6.43
2019-01-12T17:40:23.588Z,5.50
2019-01-12T17:42:50.212Z,6.20
2019-01-12T17:45:27.578Z,6.27
2019-01-12T17:47:57.225Z,6.87
2019-01-12T17:50:24.941Z,7.30
2019-01-12T17:52:52.680Z,7.33
2019-01-12T17:55:22.230Z,6.83
2019-01-12T17:57:53.250Z,6.43
2019-01-12T18:00:37.717Z,6.20
2019-01-12T18:03:23.555Z,6.30
2019-01-12T18:05:50.093Z,6.10
2019-01-12T18:08:20.869Z,6.13
2019-01-12T18:10:47.693Z,5.97
2019-01-12T18:13:16.038Z,5.63
2019-01-12T18:15:44.991Z,6.37
2019-01-12T18:18:14.244Z,5.93
2019-01-12T18:20:47.841Z,6.60
2019-01-12T18:23:15.644Z,7.33
2019-01-12T18:25:42.600Z,6.60
2019-01-12T18:28:12.273Z,6.53
2019-01-12T18:30:47.043Z,6.63
2019-01-12T18:33:14.011Z,5.33
2019-01-12T18:35:41.028Z,5.40
2019-01-12T18:38:13.881Z,5.33
2019-01-12T18:40:41.029Z,5.40
2019-01-12T18:43:25.634Z,4.63
2019-01-12T18:45:54.298Z,4.53
2019-01-12T18:48:40.577Z,4.67
2019-01-12T18:51:12.215Z,4.30
2019-01-12T18:53:39.065Z,4.10
2019-01-12T18:56:07.251Z,5.43
2019-01-12T18:58:34.196Z,4.53
2019-01-12T19:01:03.796Z,4.47
2019-01-12T19:03:33.418Z,4.07
2019-01-12T19:06:02.095Z,4.27
2019-01-12T19:08:29.082Z,4.80
2019-01-12T19:10:56.862Z,4.67
2019-01-12T19:13:25.655Z,4.23
2019-01-12T19:15:58.931Z,4.50
2019-01-12T19:18:29.062Z,4.83
2019-01-12T19:20:58.211Z,4.70
2019-01-12T19:23:25.318Z,6.53
2019-01-12T19:25:58.284Z,5.13
2019-01-12T19:28:25.495Z,4.73
2019-01-12T19:31:00.601Z,4.43
2019-01-12T19:33:32.570Z,4.27
2019-01-12T19:35:59.884Z,4.30
2019-01-12T19:38:37.689Z,4.47
2019-01-12T19:41:04.626Z,4.27
2019-01-12T19:43:38.729Z,3.90
2019-01-12T19:46:23.620Z,3.60
2019-01-12T19:49:20.199Z,3.83
2019-01-12T19:52:05.958Z,4.23
2019-01-12T19:54:37.738Z,3.60
2019-01-12T19:57:16.610Z,3.30
2019-01-12T19:59:49.304Z,2.73
2019-01-12T20:02:20.121Z,2.20
2019-01-12T20:04:48.197Z,2.20
2019-01-12T20:07:32.745Z,2.00
2019-01-12T20:09:59.728Z,2.93
2019-01-12T20:12:32.594Z,2.00
2019-01-12T20:15:01.009Z,1.80
2019-01-12T20:17:42.461Z,1.83
2019-01-12T20:20:15.029Z,1.93
2019-01-12T20:22:57.601Z,1.90
2019-01-12T20:25:36.509Z,1.97
2019-01-12T20:28:05.617Z,2.00
2019-01-12T20:30:51.722Z,2.00
2019-01-12T20:33:23.415Z,2.10
2019-01-12T20:36:14.869Z,2.40
2019-01-12T20:39:01.671Z,2.37
2019-01-12T20:41:46.623Z,2.43
2019-01-12T20:45:06.418Z,2.70
2019-01-12T20:48:11.990Z,3.23
2019-01-12T20:50:56.967Z,4.20
2019-01-12T21:03:42.689Z,3.30
2019-01-12T21:17:54.629Z,4.90
2019-01-12T21:20:40.739Z,5.40
2019-01-12T21:54:11.599Z,6.43
2019-01-12T21:57:11.707Z,7.10
2019-01-12T21:59:59.541Z,7.50
2019-01-12T22:02:46.034Z,6.37
2019-01-12T22:05:33.516Z,7.70
2019-01-12T22:08:37.124Z,6.97
2019-01-12T22:11:58.695Z,6.67
2019-01-12T22:17:33.928Z,4.40
2019-01-12T22:20:17.900Z,5.77
2019-01-12T22:23:01.673Z,4.30
2019-01-12T22:25:49.107Z,4.00
2019-01-12T22:30:40.295Z,4.77
2019-01-12T22:31:16.457Z,3.30
2019-01-12T22:33:53.029Z,4.17
2019-01-12T22:36:33.042Z,4.00
2019-01-12T22:39:05.413Z,3.20
2019-01-12T22:41:50.911Z,5.20
2019-01-12T22:44:35.239Z,3.30
2019-01-12T22:47:08.454Z,3.20
2019-01-12T22:49:45.482Z,3.70
2019-01-12T22:52:22.359Z,2.90
2019-01-12T22:54:55.897Z,2.67
2019-01-12T22:57:43.676Z,2.63
2019-01-12T23:00:39.735Z,2.40
2019-01-12T23:03:14.881Z,2.60
2019-01-12T23:05:45.518Z,2.90
2019-01-12T23:08:23.504Z,2.90
2019-01-12T23:10:51.446Z,3.57
2019-01-12T23:13:24.167Z,3.70
2019-01-12T23:15:53.616Z,3.50
2019-01-12T23:18:25.705Z,3.10
2019-01-12T23:21:13.802Z,2.70
2019-01-12T23:24:02.151Z,3.20
2019-01-12T23:26:41.315Z,3.30
2019-01-12T23:29:13.364Z,3.23
2019-01-12T23:31:51.120Z,4.20
2019-01-12T23:34:27.643Z,4.10
2019-01-12T23:37:12.733Z,3.70
2019-01-12T23:39:53.805Z,3.80
2019-01-12T23:42:44.130Z,4.07
2019-01-12T23:45:24.195Z,3.80
2019-01-12T23:48:04.787Z,4.13
2019-01-12T23:50:34.387Z,4.40
2019-01-12T23:53:04.662Z,4.07
2019-01-12T23:55:33.603Z,4.27
2019-01-12T23:58:06.088Z,4.60
